Time;durP1;ratioP1;P1;durP2;ratioP2;P2;SDS_P1;SDS_P2;PMS_P1;PMS_P2;Temp;Humidity;BMP_temperature;BMP_pressure;BME280_temperature;BME280_humidity;BME280_pressure;Samples;Min_cycle;Max_cycle;Signal;HPM_P1;HPM_P2
2022/10/15 00:02:11;;;;;;;53.35;34.30;;;13.90;99.90;;;;;;5018793;28;20221;-75
2022/10/15 00:04:38;;;;;;;57.17;35.83;;;13.90;99.90;;;;;;5027571;28;20217;-74
2022/10/15 00:07:05;;;;;;;70.40;38.83;;;13.90;99.90;;;;;;5018161;28;20287;-76
2022/10/15 00:09:32;;;;;;;74.68;40.92;;;13.80;99.90;;;;;;5015266;28;20536;-74
2022/10/15 00:12:00;;;;;;;68.07;37.92;;;13.80;99.90;;;;;;5023814;28;20239;-75
2022/10/15 00:14:27;;;;;;;79.25;41.38;;;13.80;99.90;;;;;;5022668;28;20215;-74
2022/10/15 00:16:55;;;;;;;67.43;38.78;;;13.80;99.90;;;;;;5024335;28;20224;-76
2022/10/15 00:19:22;;;;;;;83.88;39.40;;;13.70;99.90;;;;;;5018428;28;20205;-73
2022/10/15 00:21:49;;;;;;;54.80;35.70;;;13.60;99.90;;;;;;5016071;28;20599;-75
2022/10/15 00:24:16;;;;;;;68.60;38.63;;;13.60;99.90;;;;;;5022036;28;20288;-75
2022/10/15 00:26:42;;;;;;;78.85;40.78;;;13.60;99.90;;;;;;5023556;28;20572;-74
2022/10/15 00:29:11;;;;;;;59.55;36.28;;;13.60;99.90;;;;;;5012863;28;20584;-74
2022/10/15 00:31:38;;;;;;;65.82;38.08;;;13.60;99.90;;;;;;5015366;28;20312;-76
2022/10/15 00:34:05;;;;;;;82.65;40.38;;;13.60;99.90;;;;;;5019687;28;20555;-76
2022/10/15 00:36:35;;;;;;;82.85;41.78;;;13.50;99.90;;;;;;5018464;28;20225;-75
2022/10/15 00:39:04;;;;;;;61.25;38.97;;;13.50;99.90;;;;;;5018357;28;20752;-76
2022/10/15 00:41:33;;;;;;;91.40;42.42;;;13.40;99.90;;;;;;5020104;28;20664;-73
2022/10/15 00:44:02;;;;;;;84.50;42.08;;;13.40;99.90;;;;;;5024494;28;20227;-74
2022/10/15 00:46:35;;;;;;;82.68;41.50;;;13.30;99.90;;;;;;5012900;28;20621;-75
2022/10/15 00:49:10;;;;;;;99.18;46.08;;;13.30;99.90;;;;;;5025644;28;20224;-73
2022/10/15 00:51:50;;;;;;;92.75;43.33;;;13.30;99.90;;;;;;5025310;28;20719;-73
2022/10/15 00:54:17;;;;;;;103.68;43.30;;;13.30;99.90;;;;;;5024906;28;20215;-76
2022/10/15 00:56:45;;;;;;;95.28;45.85;;;13.20;99.90;;;;;;5018426;28;20612;-74
2022/10/15 00:59:14;;;;;;;81.55;40.40;;;13.20;99.90;;;;;;5016222;28;20304;-74
2022/10/15 01:01:43;;;;;;;83.88;44.20;;;13.20;99.90;;;;;;5013072;28;20205;-76
2022/10/15 01:04:11;;;;;;;76.88;41.63;;;13.20;99.90;;;;;;5023633;28;20235;-75
2022/10/15 01:06:39;;;;;;;80.05;41.78;;;13.30;99.90;;;;;;5024217;28;20302;-75
2022/10/15 01:09:06;;;;;;;105.43;43.47;;;13.30;99.90;;;;;;5026005;28;20314;-73
2022/10/15 01:11:40;;;;;;;79.80;41.78;;;13.20;99.90;;;;;;5023597;28;20240;-74
2022/10/15 01:14:28;;;;;;;82.40;41.08;;;13.20;99.90;;;;;;5027384;28;20231;-71
2022/10/15 01:17:01;;;;;;;97.97;44.65;;;13.20;99.90;;;;;;5007640;28;20214;-74
2022/10/15 01:19:49;;;;;;;116.47;47.50;;;13.10;99.90;;;;;;5040674;28;20258;-74
2022/10/15 01:22:24;;;;;;;107.65;44.47;;;13.00;99.90;;;;;;5035901;28;20215;-73
2022/10/15 01:25:12;;;;;;;119.97;47.03;;;13.00;99.90;;;;;;5019139;28;20674;-76
2022/10/15 01:27:43;;;;;;;127.15;48.53;;;12.90;99.90;;;;;;5024129;28;20266;-74
2022/10/15 01:30:23;;;;;;;123.93;48.95;;;12.90;99.90;;;;;;5026791;28;20248;-74
2022/10/15 01:33:11;;;;;;;123.32;50.08;;;12.90;99.90;;;;;;5008520;28;20211;-74
2022/10/15 01:35:48;;;;;;;126.68;50.15;;;12.90;99.90;;;;;;5021968;28;20298;-76
2022/10/15 01:38:37;;;;;;;111.60;48.63;;;12.90;99.90;;;;;;5018295;28;20730;-76
2022/10/15 01:41:11;;;;;;;129.60;51.38;;;12.90;99.90;;;;;;5017223;28;20205;-75
2022/10/15 01:43:43;;;;;;;127.50;50.17;;;13.00;99.90;;;;;;5020311;28;20569;-77
2022/10/15 01:46:17;;;;;;;131.98;52.20;;;12.90;99.90;;;;;;5020448;28;20561;-74
2022/10/15 01:48:44;;;;;;;131.18;51.67;;;13.00;99.90;;;;;;5019456;28;20591;-74
2022/10/15 01:51:13;;;;;;;94.63;44.53;;;13.00;99.90;;;;;;5021795;28;20220;-76
2022/10/15 01:53:41;;;;;;;131.98;52.50;;;13.00;99.90;;;;;;5029136;28;20208;-75
2022/10/15 01:56:14;;;;;;;121.50;49.90;;;13.10;99.90;;;;;;5020696;28;20201;-75
2022/10/15 01:58:44;;;;;;;108.97;47.67;;;13.10;99.90;;;;;;5022935;28;20224;-76
2022/10/15 02:01:12;;;;;;;147.20;53.63;;;13.10;99.90;;;;;;5026229;28;20292;-76
2022/10/15 02:03:47;;;;;;;131.00;51.88;;;13.10;99.90;;;;;;5028386;28;20255;-73
2022/10/15 02:06:19;;;;;;;121.78;49.60;;;13.10;99.90;;;;;;5025311;28;20216;-73
2022/10/15 02:08:57;;;;;;;136.02;51.95;;;13.10;99.90;;;;;;5014560;28;20228;-75
2022/10/15 02:11:25;;;;;;;114.97;50.10;;;13.10;99.90;;;;;;5016316;28;20652;-76
2022/10/15 02:14:06;;;;;;;152.13;54.70;;;13.00;99.90;;;;;;5010692;28;20300;-76
2022/10/15 02:16:41;;;;;;;145.65;52.17;;;13.00;99.90;;;;;;5015342;28;20207;-75
2022/10/15 02:19:18;;;;;;;159.38;56.33;;;13.00;99.90;;;;;;5013467;28;20255;-73
2022/10/15 02:21:52;;;;;;;156.25;53.90;;;13.10;99.90;;;;;;5027419;28;20297;-76
2022/10/15 02:24:23;;;;;;;156.43;56.13;;;13.00;99.90;;;;;;5017770;28;20288;-76
2022/10/15 02:26:53;;;;;;;129.10;51.35;;;13.10;99.90;;;;;;5009891;28;20291;-75
2022/10/15 02:29:24;;;;;;;163.60;54.60;;;13.10;99.90;;;;;;5001551;28;20696;-75
2022/10/15 02:31:55;;;;;;;136.23;51.47;;;13.10;99.90;;;;;;5018362;28;20602;-73
2022/10/15 02:34:26;;;;;;;134.93;50.97;;;13.10;99.90;;;;;;4999781;28;20285;-76
2022/10/15 02:36:55;;;;;;;100.75;47.08;;;13.10;99.90;;;;;;5021335;28;20287;-74
2022/10/15 02:39:24;;;;;;;124.30;51.70;;;13.10;99.90;;;;;;5021001;28;20284;-74
2022/10/15 02:41:52;;;;;;;126.80;51.38;;;13.10;99.90;;;;;;5009340;28;20208;-74
2022/10/15 02:44:19;;;;;;;146.65;52.55;;;13.10;99.90;;;;;;5022229;28;20292;-75
2022/10/15 02:46:46;;;;;;;158.13;56.10;;;13.10;99.90;;;;;;5020802;28;20559;-75
2022/10/15 02:49:14;;;;;;;150.68;53.67;;;13.10;99.90;;;;;;5010393;28;20658;-75
2022/10/15 02:51:42;;;;;;;150.82;54.50;;;13.10;99.90;;;;;;5010860;28;20201;-75
2022/10/15 02:54:09;;;;;;;129.30;48.65;;;13.20;99.90;;;;;;5024321;28;20322;-75
2022/10/15 02:56:38;;;;;;;139.15;55.45;;;13.20;99.90;;;;;;5020767;28;20289;-75
2022/10/15 02:59:05;;;;;;;136.75;51.28;;;13.30;99.90;;;;;;5038763;28;20239;-74
2022/10/15 03:01:31;;;;;;;147.10;53.72;;;13.30;99.90;;;;;;5040939;28;20209;-72
2022/10/15 03:03:59;;;;;;;136.32;51.45;;;13.40;99.90;;;;;;5033387;28;20189;-73
2022/10/15 03:06:27;;;;;;;147.43;52.80;;;13.40;99.90;;;;;;5034369;28;20200;-73
2022/10/15 03:08:54;;;;;;;135.45;53.03;;;13.40;99.90;;;;;;5036220;28;20247;-76
2022/10/15 03:11:21;;;;;;;128.25;53.65;;;13.40;99.90;;;;;;5026165;28;20717;-76
2022/10/15 03:13:48;;;;;;;121.28;51.10;;;13.40;99.90;;;;;;5021252;28;20243;-75
2022/10/15 03:16:15;;;;;;;110.35;48.30;;;13.40;99.90;;;;;;5028616;28;20236;-74
2022/10/15 03:18:42;;;;;;;118.15;49.88;;;13.50;99.90;;;;;;5013088;28;20227;-75
2022/10/15 03:21:09;;;;;;;119.57;48.67;;;13.40;99.90;;;;;;5018916;28;20236;-74
2022/10/15 03:23:37;;;;;;;136.00;54.60;;;13.50;99.90;;;;;;5022938;28;20287;-73
2022/10/15 03:26:04;;;;;;;119.60;49.50;;;13.40;99.90;;;;;;5006825;28;20200;-75
2022/10/15 03:28:31;;;;;;;123.40;48.85;;;13.30;99.90;;;;;;5023776;28;20263;-74
2022/10/15 03:30:58;;;;;;;111.90;46.00;;;13.40;99.90;;;;;;5018389;28;20664;-74
2022/10/15 03:33:25;;;;;;;117.15;48.15;;;13.30;99.90;;;;;;5001094;28;20221;-73
2022/10/15 03:35:52;;;;;;;109.82;46.15;;;13.30;99.90;;;;;;5012123;28;20711;-74
2022/10/15 03:38:20;;;;;;;110.95;47.30;;;13.30;99.90;;;;;;5015838;28;20305;-76
2022/10/15 03:40:48;;;;;;;115.68;47.95;;;13.20;99.90;;;;;;5010868;28;20201;-76
2022/10/15 03:43:15;;;;;;;108.25;45.90;;;13.20;99.90;;;;;;5012737;28;20644;-74
2022/10/15 03:45:42;;;;;;;97.93;45.08;;;13.30;99.90;;;;;;5022423;28;20239;-76
2022/10/15 03:48:09;;;;;;;94.60;40.92;;;13.20;99.90;;;;;;5025075;28;20629;-73
2022/10/15 03:50:36;;;;;;;97.47;38.50;;;13.20;99.90;;;;;;5023168;28;20204;-74
2022/10/15 03:53:04;;;;;;;93.28;41.42;;;13.20;99.90;;;;;;5018847;28;20711;-74
2022/10/15 03:55:32;;;;;;;95.78;43.15;;;13.20;99.90;;;;;;5006842;28;20552;-74
2022/10/15 03:58:00;;;;;;;83.50;41.40;;;13.20;99.90;;;;;;5011116;28;20255;-75
2022/10/15 04:00:30;;;;;;;87.88;41.88;;;13.20;99.90;;;;;;5022979;28;20235;-75
2022/10/15 04:02:57;;;;;;;78.90;41.83;;;13.10;99.90;;;;;;5019703;28;20192;-73
2022/10/15 04:05:29;;;;;;;100.65;41.08;;;13.00;99.90;;;;;;5022917;28;20247;-76
2022/10/15 04:07:57;;;;;;;90.07;39.53;;;13.00;99.90;;;;;;5010508;28;20240;-76
2022/10/15 04:10:24;;;;;;;92.88;42.22;;;13.00;99.90;;;;;;5020476;28;20297;-73
2022/10/15 04:12:51;;;;;;;91.47;42.33;;;13.00;99.90;;;;;;5008140;28;20221;-73
2022/10/15 04:15:19;;;;;;;86.03;38.80;;;13.10;99.90;;;;;;5011379;28;20197;-74
2022/10/15 04:17:48;;;;;;;96.78;41.67;;;13.10;99.90;;;;;;5018284;28;20216;-75
2022/10/15 04:20:15;;;;;;;87.20;42.75;;;13.10;99.90;;;;;;5027923;28;20208;-75
2022/10/15 04:22:43;;;;;;;94.82;42.85;;;13.00;99.90;;;;;;5018476;28;20372;-74
2022/10/15 04:25:10;;;;;;;94.38;41.97;;;13.00;99.90;;;;;;5023497;28;20314;-75
2022/10/15 04:27:38;;;;;;;94.55;45.03;;;12.90;99.90;;;;;;5012130;28;20223;-73
2022/10/15 04:30:06;;;;;;;86.32;42.80;;;12.90;99.90;;;;;;5020130;28;20210;-74
2022/10/15 04:32:35;;;;;;;107.88;48.83;;;12.90;99.90;;;;;;5016632;28;20216;-75
2022/10/15 04:35:02;;;;;;;98.25;44.85;;;12.80;99.90;;;;;;5019613;28;20255;-76
2022/10/15 04:37:29;;;;;;;92.80;46.80;;;12.80;99.90;;;;;;5017665;28;20224;-75
2022/10/15 04:39:56;;;;;;;100.55;46.95;;;12.90;99.90;;;;;;5029916;28;20207;-73
2022/10/15 04:42:23;;;;;;;99.32;44.67;;;12.90;99.90;;;;;;5028234;28;20212;-73
2022/10/15 04:44:49;;;;;;;101.50;46.95;;;12.90;99.90;;;;;;5025189;28;20276;-74
2022/10/15 04:47:16;;;;;;;88.07;41.65;;;12.90;99.90;;;;;;5026203;28;20204;-72
2022/10/15 04:49:45;;;;;;;101.28;45.13;;;12.80;99.90;;;;;;5037604;28;20211;-74
2022/10/15 04:52:12;;;;;;;91.68;42.70;;;12.90;99.90;;;;;;5025974;28;20236;-75
2022/10/15 04:54:38;;;;;;;93.32;43.10;;;12.80;99.90;;;;;;5010791;28;20398;-75
2022/10/15 04:57:07;;;;;;;104.55;45.65;;;12.80;99.90;;;;;;5011316;28;20204;-74
2022/10/15 04:59:33;;;;;;;107.45;43.67;;;12.80;99.90;;;;;;5010952;28;20291;-73
2022/10/15 05:02:00;;;;;;;120.03;47.83;;;12.70;99.90;;;;;;5016776;28;20238;-74
2022/10/15 05:04:27;;;;;;;112.43;48.17;;;12.70;99.90;;;;;;5018603;28;20295;-74
2022/10/15 05:06:56;;;;;;;110.53;46.25;;;12.70;99.90;;;;;;5008755;28;20248;-75
2022/10/15 05:09:23;;;;;;;103.82;46.38;;;12.60;99.90;;;;;;5020327;28;20201;-75
2022/10/15 05:11:50;;;;;;;113.45;49.28;;;12.60;99.90;;;;;;5005701;28;20311;-73
2022/10/15 05:14:17;;;;;;;107.30;45.00;;;12.70;99.90;;;;;;5014117;28;20303;-73
2022/10/15 05:16:43;;;;;;;125.75;49.40;;;12.70;99.90;;;;;;5029425;28;20612;-76
2022/10/15 05:19:11;;;;;;;101.07;43.28;;;12.70;99.90;;;;;;5019012;28;20270;-75
2022/10/15 05:21:39;;;;;;;102.85;44.45;;;12.70;99.90;;;;;;5019421;28;20204;-73
2022/10/15 05:24:09;;;;;;;99.45;42.90;;;12.70;99.90;;;;;;5014259;28;20197;-73
2022/10/15 05:26:35;;;;;;;104.75;42.97;;;12.70;99.90;;;;;;5010541;28;20210;-75
2022/10/15 05:29:03;;;;;;;111.50;45.42;;;12.70;99.90;;;;;;5012544;28;20307;-75
2022/10/15 05:31:32;;;;;;;75.57;41.90;;;12.80;99.90;;;;;;5017907;28;20282;-76
2022/10/15 05:33:59;;;;;;;105.90;44.10;;;12.80;99.90;;;;;;5021221;28;20227;-73
2022/10/15 05:36:28;;;;;;;108.75;47.17;;;12.80;99.90;;;;;;5004578;28;20682;-74
2022/10/15 05:38:57;;;;;;;87.05;42.72;;;12.90;99.90;;;;;;5013869;28;20306;-76
2022/10/15 05:41:26;;;;;;;96.13;43.85;;;13.10;99.90;;;;;;5010294;28;20626;-73
2022/10/15 05:43:55;;;;;;;88.03;41.78;;;13.10;99.90;;;;;;5007809;28;20288;-74
2022/10/15 05:46:22;;;;;;;81.18;41.78;;;13.10;99.90;;;;;;5017776;28;20196;-75
2022/10/15 05:48:50;;;;;;;102.45;44.05;;;13.10;99.90;;;;;;5014043;28;20651;-73
2022/10/15 05:51:18;;;;;;;102.90;45.95;;;13.10;99.90;;;;;;5020339;28;20290;-74
2022/10/15 05:53:46;;;;;;;84.88;43.70;;;13.20;99.90;;;;;;5004070;28;20715;-73
2022/10/15 05:56:14;;;;;;;90.97;41.50;;;13.20;99.90;;;;;;5005413;28;20285;-76
2022/10/15 05:58:42;;;;;;;99.03;42.63;;;13.20;99.90;;;;;;5016077;28;20294;-75
2022/10/15 06:01:11;;;;;;;75.30;35.75;;;13.30;99.90;;;;;;5026982;28;20302;-74
2022/10/15 06:03:39;;;;;;;84.90;41.83;;;13.30;99.90;;;;;;5026631;28;20623;-76
2022/10/15 06:06:14;;;;;;;82.40;38.50;;;13.40;99.90;;;;;;5020055;28;20239;-74
2022/10/15 06:08:40;;;;;;;77.55;38.05;;;13.40;99.90;;;;;;5015542;28;20603;-73
2022/10/15 06:11:09;;;;;;;85.32;40.33;;;13.40;99.90;;;;;;5019529;28;20205;-75
2022/10/15 06:13:39;;;;;;;91.45;39.30;;;13.40;99.90;;;;;;5016149;28;20633;-75
2022/10/15 06:16:09;;;;;;;75.80;38.65;;;13.50;99.90;;;;;;5016749;28;20215;-76
2022/10/15 06:18:37;;;;;;;90.50;38.47;;;13.50;99.90;;;;;;5009684;28;20254;-73
2022/10/15 06:21:04;;;;;;;68.30;37.88;;;13.50;99.90;;;;;;5028119;28;20231;-75
2022/10/15 06:23:31;;;;;;;95.28;43.80;;;13.50;99.90;;;;;;5028643;28;20263;-76
2022/10/15 06:26:02;;;;;;;83.47;37.88;;;13.50;99.90;;;;;;5020025;28;20212;-77
2022/10/15 06:28:29;;;;;;;96.80;44.88;;;13.60;99.90;;;;;;5025159;28;20224;-74
2022/10/15 06:30:58;;;;;;;65.97;37.92;;;13.50;99.90;;;;;;5010460;28;20204;-71
2022/10/15 06:33:26;;;;;;;82.07;39.90;;;13.60;99.90;;;;;;5027424;28;21027;-73
2022/10/15 06:36:02;;;;;;;70.03;37.13;;;13.70;99.90;;;;;;5007871;28;20255;-75
2022/10/15 06:38:29;;;;;;;75.00;40.08;;;14.00;99.90;;;;;;5016947;28;20221;-75
2022/10/15 06:40:56;;;;;;;64.28;36.88;;;14.10;99.90;;;;;;5023821;28;20640;-73
2022/10/15 06:43:23;;;;;;;63.63;38.72;;;14.20;99.90;;;;;;5017253;28;20204;-75
2022/10/15 06:45:53;;;;;;;60.00;35.55;;;14.30;99.90;;;;;;5012356;28;20624;-75
2022/10/15 06:48:19;;;;;;;66.80;34.17;;;14.30;99.90;;;;;;5018784;28;20222;-74
2022/10/15 06:50:48;;;;;;;68.57;37.75;;;14.50;99.90;;;;;;5030961;28;20208;-73
2022/10/15 06:53:15;;;;;;;63.80;34.10;;;14.90;99.90;;;;;;5023911;28;20207;-74
2022/10/15 06:55:42;;;;;;;65.00;34.25;;;15.40;99.90;;;;;;5013002;28;20208;-75
2022/10/15 06:58:10;;;;;;;59.20;35.10;;;16.00;99.90;;;;;;5021987;28;20291;-74
2022/10/15 07:00:37;;;;;;;52.57;32.63;;;16.40;99.90;;;;;;5020795;28;20475;-76
2022/10/15 07:03:05;;;;;;;57.27;33.20;;;16.70;99.90;;;;;;5029250;28;20458;-76
2022/10/15 07:05:33;;;;;;;45.00;30.73;;;16.70;99.90;;;;;;5030255;28;20877;-74
2022/10/15 07:08:01;;;;;;;46.33;30.37;;;17.10;99.90;;;;;;5017023;28;20827;-73
2022/10/15 07:10:28;;;;;;;57.03;35.77;;;17.60;99.90;;;;;;5020735;28;20510;-76
2022/10/15 07:12:59;;;;;;;44.53;29.83;;;17.40;99.90;;;;;;5022560;28;20435;-73
2022/10/15 07:15:26;;;;;;;51.80;32.33;;;17.50;99.90;;;;;;5026428;28;20489;-74
2022/10/15 07:17:55;;;;;;;56.63;35.00;;;17.50;99.90;;;;;;5029490;28;20549;-75
2022/10/15 07:20:22;;;;;;;56.37;34.17;;;17.50;99.90;;;;;;5028909;28;20448;-75
2022/10/15 07:22:49;;;;;;;55.20;35.63;;;17.30;99.90;;;;;;5027443;28;20466;-75
2022/10/15 07:25:18;;;;;;;58.17;35.13;;;17.40;99.90;;;;;;5025087;28;20482;-74
2022/10/15 07:27:44;;;;;;;54.53;33.90;;;17.40;99.90;;;;;;5036696;28;20466;-74
2022/10/15 07:30:12;;;;;;;56.03;33.60;;;17.40;99.90;;;;;;5031283;28;20447;-72
2022/10/15 07:32:38;;;;;;;51.40;32.27;;;17.80;99.90;;;;;;5018278;28;20440;-75
2022/10/15 07:35:06;;;;;;;53.30;34.10;;;18.20;99.90;;;;;;5013214;28;20510;-72
2022/10/15 07:37:33;;;;;;;58.83;34.60;;;18.90;99.90;;;;;;5006363;28;20558;-76
2022/10/15 07:40:00;;;;;;;55.90;34.63;;;19.20;99.90;;;;;;5016782;28;20449;-74
2022/10/15 07:42:28;;;;;;;46.80;31.03;;;19.20;99.90;;;;;;5029233;28;20453;-76
2022/10/15 07:44:55;;;;;;;50.60;31.77;;;18.80;99.90;;;;;;5020469;28;20520;-76
2022/10/15 07:47:22;;;;;;;50.90;33.57;;;18.80;99.90;;;;;;5017760;28;20464;-75
2022/10/15 07:49:49;;;;;;;47.33;33.17;;;18.80;99.90;;;;;;5012385;28;20479;-76
2022/10/15 07:52:15;;;;;;;50.27;33.27;;;18.90;99.90;;;;;;5023151;28;20856;-74
2022/10/15 07:54:42;;;;;;;54.80;34.00;;;18.80;99.90;;;;;;5022613;28;20468;-74
2022/10/15 07:57:09;;;;;;;47.43;32.87;;;19.00;99.90;;;;;;5019525;28;20545;-75
2022/10/15 07:59:38;;;;;;;47.77;32.73;;;19.20;99.90;;;;;;5021484;28;20531;-76
2022/10/15 08:02:05;;;;;;;46.60;30.87;;;19.90;99.90;;;;;;5010254;28;21002;-74
2022/10/15 08:04:33;;;;;;;50.17;32.17;;;20.80;99.90;;;;;;5020810;28;20448;-78
2022/10/15 08:07:00;;;;;;;40.87;29.23;;;21.60;99.90;;;;;;5017325;28;20836;-74
2022/10/15 08:09:27;;;;;;;44.27;30.30;;;22.30;99.90;;;;;;5029218;28;20537;-75
2022/10/15 08:11:54;;;;;;;42.67;31.13;;;22.90;99.90;;;;;;5027435;28;20439;-74
2022/10/15 08:14:21;;;;;;;40.13;28.80;;;23.00;99.90;;;;;;5022856;28;20487;-72
2022/10/15 08:16:49;;;;;;;42.50;30.10;;;23.60;99.90;;;;;;5023586;28;20451;-73
2022/10/15 08:19:17;;;;;;;45.27;31.00;;;23.90;98.50;;;;;;5011539;28;20468;-73
2022/10/15 08:21:44;;;;;;;40.97;28.20;;;24.20;97.40;;;;;;5023450;28;20918;-72
2022/10/15 08:24:11;;;;;;;52.90;30.87;;;24.30;96.40;;;;;;5006255;28;20935;-76
2022/10/15 08:26:39;;;;;;;36.10;27.10;;;24.30;96.70;;;;;;5014697;28;20769;-77
2022/10/15 08:29:06;;;;;;;37.90;27.23;;;24.70;96.00;;;;;;5019168;28;20472;-76
2022/10/15 08:31:32;;;;;;;36.10;25.50;;;25.00;94.70;;;;;;5019551;28;20522;-76
2022/10/15 08:34:02;;;;;;;32.47;25.90;;;24.60;94.70;;;;;;5018313;28;20558;-76
2022/10/15 08:36:29;;;;;;;32.03;24.07;;;25.10;94.60;;;;;;5013653;28;20472;-74
2022/10/15 08:38:56;;;;;;;31.83;23.33;;;25.50;93.00;;;;;;5020656;28;20880;-75
2022/10/15 08:41:29;;;;;;;34.27;26.20;;;25.40;93.20;;;;;;5016654;28;20559;-77
2022/10/15 08:43:56;;;;;;;32.27;24.57;;;25.90;92.50;;;;;;5018614;28;20448;-74
2022/10/15 08:46:28;;;;;;;30.70;24.00;;;25.70;92.40;;;;;;5012551;28;20558;-76
2022/10/15 08:48:59;;;;;;;35.60;25.80;;;26.50;91.70;;;;;;5011871;28;20477;-77
2022/10/15 08:51:31;;;;;;;33.73;23.93;;;24.50;91.80;;;;;;5020800;28;20469;-74
2022/10/15 08:54:02;;;;;;;31.00;22.83;;;23.20;95.20;;;;;;5000261;28;20446;-75
2022/10/15 08:56:33;;;;;;;32.30;22.80;;;22.30;97.10;;;;;;5021651;28;20449;-75
2022/10/15 08:59:30;;;;;;;30.70;21.13;;;21.80;98.90;;;;;;5018610;28;20467;-76
2022/10/15 09:02:02;;;;;;;33.03;22.33;;;21.30;99.90;;;;;;5017729;28;20942;-77
2022/10/15 09:04:36;;;;;;;29.23;20.70;;;19.90;99.90;;;;;;5026526;28;20859;-73
2022/10/15 09:07:11;;;;;;;30.30;19.90;;;19.20;99.90;;;;;;5011108;28;20799;-73
2022/10/15 09:09:43;;;;;;;31.53;20.13;;;18.70;99.90;;;;;;5024479;28;20617;-75
2022/10/15 09:12:29;;;;;;;29.57;21.73;;;18.50;99.90;;;;;;5005481;28;20907;-75
2022/10/15 09:14:58;;;;;;;31.80;21.50;;;18.40;99.90;;;;;;5005787;28;20527;-74
2022/10/15 09:17:27;;;;;;;32.20;22.13;;;18.20;99.90;;;;;;5018465;28;20474;-74
2022/10/15 09:19:56;;;;;;;30.70;21.80;;;18.20;99.90;;;;;;5027925;28;20493;-75
2022/10/15 09:22:26;;;;;;;33.70;21.30;;;18.00;99.90;;;;;;5026494;28;20877;-79
2022/10/15 09:24:56;;;;;;;33.30;20.23;;;18.10;99.90;;;;;;5013715;28;20526;-76
2022/10/15 09:27:31;;;;;;;29.20;18.83;;;18.10;99.90;;;;;;5001209;28;20492;-77
2022/10/15 09:30:04;;;;;;;31.43;19.43;;;17.80;99.90;;;;;;5015124;28;20952;-75
2022/10/15 09:32:37;;;;;;;30.43;18.93;;;17.80;99.90;;;;;;5007750;28;20464;-75
2022/10/15 09:35:13;;;;;;;27.83;18.33;;;17.80;99.90;;;;;;5024787;28;20916;-78
2022/10/15 09:37:49;;;;;;;29.40;18.17;;;17.80;99.90;;;;;;5024391;28;20463;-75
2022/10/15 09:40:29;;;;;;;34.03;23.00;;;17.80;99.90;;;;;;5021661;28;20442;-76
2022/10/15 09:42:59;;;;;;;28.50;18.90;;;17.50;99.90;;;;;;5024904;28;20467;-78
2022/10/15 09:45:26;;;;;;;31.77;21.90;;;17.10;99.90;;;;;;5031940;28;20501;-76
2022/10/15 09:47:59;;;;;;;29.03;21.97;;;17.00;99.90;;;;;;5029154;28;20471;-75
2022/10/15 09:50:30;;;;;;;28.13;18.93;;;17.10;99.90;;;;;;5022254;28;20456;-75
2022/10/15 09:53:10;;;;;;;35.27;21.63;;;17.10;99.90;;;;;;5025671;28;20450;-74
2022/10/15 09:55:43;;;;;;;33.63;20.47;;;17.30;99.90;;;;;;5025419;28;20498;-78
2022/10/15 09:58:18;;;;;;;28.50;19.60;;;17.20;99.90;;;;;;5032739;28;20496;-74
2022/10/15 10:00:59;;;;;;;32.07;18.63;;;17.30;99.90;;;;;;5038786;28;20493;-75
2022/10/15 10:03:28;;;;;;;24.40;18.23;;;17.40;99.90;;;;;;5028802;28;20514;-72
2022/10/15 10:06:04;;;;;;;25.07;18.37;;;17.40;99.90;;;;;;5033814;28;20485;-72
2022/10/15 10:08:37;;;;;;;27.23;18.13;;;17.80;99.90;;;;;;5040068;28;20479;-77
2022/10/15 10:11:08;;;;;;;23.23;15.47;;;18.80;99.90;;;;;;5027645;28;20456;-73
2022/10/15 10:13:41;;;;;;;17.43;14.10;;;19.70;99.90;;;;;;5039751;28;20479;-72
2022/10/15 10:16:10;;;;;;;24.20;17.57;;;20.60;99.90;;;;;;5024006;28;20525;-74
2022/10/15 10:18:37;;;;;;;21.17;16.53;;;20.70;99.90;;;;;;5025733;28;20503;-73
2022/10/15 10:21:05;;;;;;;21.27;16.70;;;20.70;99.90;;;;;;5031551;28;20465;-76
2022/10/15 10:23:36;;;;;;;26.33;19.63;;;21.00;99.90;;;;;;5027464;28;20879;-76
2022/10/15 10:26:06;;;;;;;25.10;18.87;;;20.90;99.90;;;;;;5025769;28;20600;-74
2022/10/15 10:28:39;;;;;;;26.50;20.17;;;20.80;99.90;;;;;;5025191;28;20536;-75
2022/10/15 10:31:08;;;;;;;26.07;19.73;;;20.90;99.90;;;;;;5016009;28;20526;-77
2022/10/15 10:33:42;;;;;;;22.57;19.23;;;20.90;99.90;;;;;;5020708;28;20561;-75
2022/10/15 10:36:20;;;;;;;25.93;20.67;;;20.90;99.90;;;;;;5015175;28;20583;-78
2022/10/15 10:39:00;;;;;;;29.73;22.33;;;21.00;99.90;;;;;;5021682;28;20504;-75
2022/10/15 10:41:48;;;;;;;28.47;21.23;;;20.40;99.90;;;;;;5023580;28;20447;-76
2022/10/15 10:44:21;;;;;;;30.87;23.00;;;20.30;99.90;;;;;;5025381;28;20439;-78
2022/10/15 10:47:02;;;;;;;30.70;22.17;;;20.00;99.90;;;;;;5022602;28;20449;-78
2022/10/15 10:49:34;;;;;;;29.00;22.17;;;20.00;99.90;;;;;;5020009;28;20543;-76
2022/10/15 10:52:01;;;;;;;27.53;22.13;;;19.80;99.90;;;;;;5015476;28;20450;-77
2022/10/15 10:54:33;;;;;;;34.60;25.30;;;20.10;99.90;;;;;;5012237;28;20452;-74
2022/10/15 10:57:01;;;;;;;34.20;24.80;;;19.90;99.90;;;;;;5019824;28;20457;-73
2022/10/15 10:59:33;;;;;;;31.97;23.87;;;19.70;99.90;;;;;;5030538;28;20550;-77
2022/10/15 11:02:02;;;;;;;31.07;23.03;;;19.60;99.90;;;;;;5022208;28;20444;-74
2022/10/15 11:04:32;;;;;;;35.17;26.50;;;19.50;99.90;;;;;;5028761;28;20445;-74
2022/10/15 11:07:03;;;;;;;34.57;26.00;;;19.50;99.90;;;;;;5016448;28;20517;-76
2022/10/15 11:09:47;;;;;;;34.40;26.87;;;19.30;99.90;;;;;;5024735;28;20444;-76
2022/10/15 11:12:37;;;;;;;38.80;29.03;;;19.00;99.90;;;;;;5026683;28;20471;-75
2022/10/15 11:15:22;;;;;;;40.27;28.20;;;18.50;99.90;;;;;;5022116;28;20479;-75
2022/10/15 11:18:01;;;;;;;38.70;27.90;;;18.20;99.90;;;;;;5023337;28;20486;-74
2022/10/15 11:20:33;;;;;;;41.80;32.77;;;18.20;99.90;;;;;;5031208;28;20448;-74
2022/10/15 11:23:18;;;;;;;42.17;33.40;;;18.10;99.90;;;;;;5032069;28;20921;-75
2022/10/15 11:25:53;;;;;;;45.30;31.70;;;18.20;99.90;;;;;;5022374;28;20563;-77
2022/10/15 11:28:34;;;;;;;40.43;32.80;;;18.40;99.90;;;;;;5022586;28;20985;-77
2022/10/15 11:31:10;;;;;;;42.80;34.53;;;18.70;99.90;;;;;;5019124;28;20486;-74
2022/10/15 11:33:58;;;;;;;42.23;33.50;;;18.80;99.90;;;;;;5022550;28;20483;-77
2022/10/15 11:36:56;;;;;;;45.00;35.33;;;18.80;99.90;;;;;;5016392;28;20492;-74
2022/10/15 11:39:34;;;;;;;45.90;34.30;;;18.90;99.90;;;;;;5004212;28;20472;-76
2022/10/15 11:42:11;;;;;;;45.67;33.07;;;19.00;99.90;;;;;;5014028;28;20439;-77
2022/10/15 11:44:54;;;;;;;39.67;30.77;;;19.00;99.90;;;;;;5027105;28;20506;-76
2022/10/15 11:47:32;;;;;;;39.10;29.90;;;19.20;99.90;;;;;;5017316;28;20505;-74
2022/10/15 11:50:19;;;;;;;40.00;26.97;;;19.40;99.90;;;;;;5033450;28;20447;-75
2022/10/15 11:53:00;;;;;;;40.47;28.60;;;19.10;99.90;;;;;;5030175;28;20463;-73
2022/10/15 11:55:36;;;;;;;34.47;26.17;;;19.20;99.90;;;;;;5021985;28;20532;-76
2022/10/15 11:58:13;;;;;;;36.17;27.00;;;19.20;99.90;;;;;;5012021;28;20564;-75
2022/10/15 12:00:45;;;;;;;37.73;26.30;;;19.10;99.90;;;;;;5019561;28;20927;-76
2022/10/15 12:03:16;;;;;;;32.13;22.90;;;19.10;99.90;;;;;;5018237;28;20968;-75
2022/10/15 12:05:47;;;;;;;26.13;20.20;;;19.00;99.90;;;;;;5011728;28;20456;-76
2022/10/15 12:08:15;;;;;;;25.73;18.33;;;18.90;99.90;;;;;;5026747;28;20970;-75
2022/10/15 12:11:12;;;;;;;24.63;19.10;;;18.80;99.90;;;;;;5013529;28;20447;-76
2022/10/15 12:13:50;;;;;;;19.60;15.83;;;18.80;99.90;;;;;;5011564;28;20506;-74
2022/10/15 12:16:28;;;;;;;21.27;15.30;;;18.60;99.90;;;;;;5021595;28;21032;-75
2022/10/15 12:19:04;;;;;;;16.50;13.43;;;18.60;99.90;;;;;;5016539;28;21037;-77
2022/10/15 12:21:34;;;;;;;19.80;14.77;;;18.70;99.90;;;;;;5016988;28;20797;-74
2022/10/15 12:24:05;;;;;;;17.27;13.33;;;18.70;99.90;;;;;;5011458;28;20482;-75
2022/10/15 12:26:34;;;;;;;17.70;14.57;;;18.80;99.90;;;;;;5018822;28;20531;-77
2022/10/15 12:29:18;;;;;;;19.13;14.57;;;18.80;99.90;;;;;;5015033;28;20476;-75
2022/10/15 12:31:50;;;;;;;22.07;15.70;;;18.70;99.90;;;;;;5016882;28;20854;-78
2022/10/15 12:34:40;;;;;;;20.43;14.67;;;18.50;99.90;;;;;;5004151;28;20453;-78
2022/10/15 12:37:16;;;;;;;24.20;14.27;;;18.30;99.90;;;;;;5006746;28;20535;-75
2022/10/15 12:39:54;;;;;;;19.53;15.17;;;18.60;99.90;;;;;;5016561;28;20455;-76
2022/10/15 12:42:24;;;;;;;18.43;14.30;;;18.70;99.90;;;;;;5020758;28;20441;-75